createdAt,value
2022-09-06T00:04:45.017Z,77.81
2022-09-06T00:17:00.994Z,79.06
2022-09-06T00:22:37.657Z,79.32
2022-09-06T00:28:13.954Z,80.38
2022-09-06T00:34:17.998Z,79.46
2022-09-06T00:39:55.777Z,78.68
2022-09-06T00:45:21.710Z,78.96
2022-09-06T00:51:13.990Z,79.13
2022-09-06T00:56:32.554Z,78.94
2022-09-06T01:02:10.102Z,78.53
2022-09-06T01:08:23.760Z,78.73
2022-09-06T01:14:39.838Z,78.46
2022-09-06T01:21:09.532Z,78.60
2022-09-06T01:27:19.757Z,78.77
2022-09-06T01:33:47.815Z,78.66
2022-09-06T01:39:48.789Z,78.72
2022-09-06T01:45:57.602Z,78.70
2022-09-06T01:52:15.318Z,79.24
2022-09-06T01:58:15.093Z,79.11
2022-09-06T02:04:39.411Z,79.99
2022-09-06T02:11:15.282Z,80.14
2022-09-06T02:17:10.913Z,79.66
2022-09-06T02:22:59.848Z,79.94
2022-09-06T02:29:06.068Z,79.59
2022-09-06T02:34:51.131Z,79.87
2022-09-06T02:40:46.213Z,79.77
2022-09-06T02:47:00.533Z,79.93
2022-09-06T02:52:48.940Z,79.82
2022-09-06T02:58:13.408Z,79.81
2022-09-06T03:03:35.648Z,79.94
2022-09-06T03:09:01.858Z,79.92
2022-09-06T03:14:35.075Z,80.00
2022-09-06T03:20:09.295Z,80.06
2022-09-06T03:25:25.738Z,79.96
2022-09-06T03:30:50.232Z,80.18
2022-09-06T03:36:55.821Z,80.30
2022-09-06T03:42:46.608Z,80.34
2022-09-06T03:48:29.103Z,80.26
2022-09-06T03:53:48.302Z,80.64
2022-09-06T04:00:01.152Z,80.79
2022-09-06T04:05:45.156Z,81.69
2022-09-06T04:11:19.823Z,81.07
2022-09-06T04:17:15.138Z,81.82
2022-09-06T04:22:36.048Z,82.01
2022-09-06T04:28:14.741Z,82.19
2022-09-06T04:34:20.987Z,82.56
2022-09-06T04:39:52.573Z,84.82
2022-09-06T04:45:36.238Z,85.18
2022-09-06T04:51:24.353Z,86.00
2022-09-06T04:56:58.395Z,85.89
2022-09-06T05:02:29.583Z,86.17
2022-09-06T05:08:25.717Z,85.62
2022-09-06T05:14:12.557Z,85.00
2022-09-06T05:19:48.353Z,84.57
2022-09-06T05:24:57.849Z,84.68
2022-09-06T05:30:25.270Z,83.96
2022-09-06T05:35:46.169Z,84.25
2022-09-06T05:41:17.018Z,84.00
2022-09-06T05:46:26.395Z,83.86
2022-09-06T05:51:53.178Z,83.41
2022-09-06T05:57:04.380Z,82.74
2022-09-06T06:02:29.090Z,82.88
2022-09-06T06:07:49.093Z,82.67
2022-09-06T06:13:10.506Z,82.76
2022-09-06T06:18:19.076Z,82.10
2022-09-06T06:23:58.361Z,81.54
2022-09-06T06:29:11.298Z,80.18
2022-09-06T06:34:20.991Z,78.72
2022-09-06T06:39:47.917Z,77.11
2022-09-06T06:44:59.471Z,76.88
2022-09-06T06:50:33.128Z,76.81
2022-09-06T06:55:57.008Z,75.14
2022-09-06T07:01:18.402Z,73.78
2022-09-06T07:19:01.317Z,68.46
2022-09-06T07:24:38.498Z,67.81
2022-09-06T07:29:44.620Z,67.43
2022-09-06T07:34:55.623Z,67.23
2022-09-06T07:40:02.357Z,65.57
2022-09-06T07:45:18.149Z,65.00
2022-09-06T07:56:48.772Z,62.21
2022-09-06T08:01:59.564Z,62.34
2022-09-06T08:12:29.424Z,58.87
2022-09-06T08:17:47.978Z,57.87
2022-09-06T08:23:03.577Z,56.54
2022-09-06T08:28:11.996Z,55.40
2022-09-06T08:33:22.102Z,55.88
2022-09-06T08:38:28.844Z,52.87
2022-09-06T08:43:34.710Z,51.19
2022-09-06T08:48:43.043Z,50.94
2022-09-06T08:53:49.547Z,50.56
2022-09-06T08:59:23.587Z,50.15
2022-09-06T09:04:35.993Z,48.78
2022-09-06T09:09:44.083Z,50.38
2022-09-06T09:15:15.111Z,48.72
2022-09-06T09:20:32.105Z,48.08
2022-09-06T09:25:45.797Z,47.06
2022-09-06T09:30:59.540Z,47.54
2022-09-06T09:36:13.868Z,46.12
2022-09-06T09:41:44.279Z,45.96
2022-09-06T09:47:28.538Z,44.92
2022-09-06T09:52:45.048Z,43.78
2022-09-06T09:58:11.492Z,43.14
2022-09-06T10:03:33.033Z,44.05
2022-09-06T10:08:43.715Z,44.88
2022-09-06T10:14:03.037Z,45.85
2022-09-06T10:20:15.553Z,46.88
2022-09-06T10:26:17.576Z,47.42
2022-09-06T10:32:04.872Z,46.88
2022-09-06T10:37:51.301Z,47.96
2022-09-06T10:43:13.941Z,48.94
2022-09-06T10:48:45.165Z,49.71
2022-09-06T10:54:01.227Z,50.13
2022-09-06T10:59:50.263Z,50.74
2022-09-06T11:10:55.521Z,51.06
2022-09-06T11:16:50.899Z,48.88
2022-09-06T11:22:26.318Z,47.26
2022-09-06T11:27:32.333Z,46.15
2022-09-06T11:32:54.312Z,45.05
2022-09-06T11:38:39.597Z,44.07
2022-09-06T11:43:58.719Z,42.99
2022-09-06T11:49:41.937Z,43.37
2022-09-06T11:54:55.943Z,42.83
2022-09-06T12:00:08.282Z,41.72
2022-09-06T12:05:30.202Z,40.65
2022-09-06T12:10:42.158Z,40.35
2022-09-06T12:15:54.448Z,40.42
2022-09-06T12:20:58.059Z,40.72
2022-09-06T12:26:12.259Z,38.90
2022-09-06T12:31:42.896Z,39.62
2022-09-06T12:37:04.547Z,39.53
2022-09-06T12:42:15.575Z,40.01
2022-09-06T12:47:33.980Z,40.13
2022-09-06T12:53:26.787Z,39.35
2022-09-06T12:58:33.450Z,37.58
2022-09-06T13:03:54.617Z,37.90
2022-09-06T13:08:59.673Z,35.27
2022-09-06T13:14:18.281Z,36.35
2022-09-06T13:19:37.248Z,36.96
2022-09-06T13:24:49.592Z,37.22
2022-09-06T13:30:38.117Z,38.12
2022-09-06T13:35:41.152Z,39.42
2022-09-06T13:41:11.602Z,40.79
2022-09-06T13:46:17.814Z,41.98
2022-09-06T13:51:48.542Z,44.15
2022-09-06T13:56:54.018Z,44.10
2022-09-06T14:02:25.128Z,42.71
2022-09-06T14:07:29.060Z,40.60
2022-09-06T14:12:33.771Z,40.15
2022-09-06T14:17:37.116Z,40.66
2022-09-06T14:22:47.823Z,41.01
2022-09-06T14:27:53.749Z,40.69
2022-09-06T14:33:02.929Z,40.76
2022-09-06T14:38:09.064Z,40.58
2022-09-06T14:43:21.363Z,41.19
2022-09-06T14:48:31.556Z,41.41
2022-09-06T14:53:40.730Z,42.54
2022-09-06T14:58:57.258Z,42.56
2022-09-06T15:04:06.875Z,42.08
2022-09-06T15:09:11.700Z,41.97
2022-09-06T15:14:37.828Z,42.05
2022-09-06T15:20:32.892Z,41.73
2022-09-06T15:26:00.809Z,42.10
2022-09-06T15:31:06.028Z,42.10
2022-09-06T15:36:47.264Z,42.08
2022-09-06T15:42:10.446Z,42.56
2022-09-06T15:47:14.094Z,43.47
2022-09-06T15:52:20.434Z,44.28
2022-09-06T15:57:28.907Z,45.15
2022-09-06T16:02:48.971Z,44.78
2022-09-06T16:07:52.479Z,45.60
2022-09-06T16:13:01.579Z,46.67
2022-09-06T16:18:10.843Z,47.04
2022-09-06T16:23:20.587Z,47.82
2022-09-06T16:28:28.590Z,48.88
2022-09-06T16:33:37.100Z,49.63
2022-09-06T16:38:46.491Z,50.04
2022-09-06T16:43:53.183Z,50.35
2022-09-06T16:49:02.899Z,51.15
2022-09-06T16:54:09.009Z,51.47
2022-09-06T16:59:17.221Z,52.58
2022-09-06T17:04:26.088Z,53.22
2022-09-06T17:10:21.304Z,53.42
2022-09-06T17:16:27.268Z,54.01
2022-09-06T17:22:10.440Z,54.62
2022-09-06T17:27:27.662Z,54.95
2022-09-06T17:32:36.614Z,54.66
2022-09-06T17:37:44.883Z,55.49
2022-09-06T17:42:48.091Z,55.94
2022-09-06T17:47:51.427Z,56.53
2022-09-06T17:53:10.859Z,56.65
2022-09-06T17:58:16.478Z,58.64
2022-09-06T18:03:22.622Z,58.31
2022-09-06T18:08:29.106Z,59.57
2022-09-06T18:13:34.866Z,60.56
2022-09-06T18:18:37.910Z,60.79
2022-09-06T18:23:41.209Z,62.58
2022-09-06T18:28:44.580Z,64.41
2022-09-06T18:33:48.163Z,66.19
2022-09-06T18:38:51.183Z,67.07
2022-09-06T18:43:56.220Z,67.50
2022-09-06T18:49:00.297Z,68.12
2022-09-06T18:54:03.479Z,68.25
2022-09-06T18:59:07.246Z,68.63
2022-09-06T19:04:11.958Z,69.09
2022-09-06T19:09:17.315Z,69.69
2022-09-06T19:14:20.548Z,70.35
2022-09-06T19:19:24.956Z,70.56
2022-09-06T19:24:28.986Z,70.68
2022-09-06T19:29:32.113Z,70.50
2022-09-06T19:34:35.263Z,70.36
2022-09-06T19:39:38.377Z,70.34
2022-09-06T19:44:41.649Z,71.14
2022-09-06T19:49:44.888Z,71.36
2022-09-06T19:54:47.858Z,71.13
2022-09-06T19:59:50.839Z,71.49
2022-09-06T20:04:53.879Z,71.96
2022-09-06T20:09:57.108Z,72.27
2022-09-06T20:15:00.178Z,72.66
2022-09-06T20:20:03.753Z,72.97
2022-09-06T20:25:07.461Z,73.13
2022-09-06T20:30:11.671Z,73.14
2022-09-06T20:35:14.903Z,73.15
2022-09-06T20:40:17.986Z,73.54
2022-09-06T20:45:23.366Z,72.64
2022-09-06T20:50:26.383Z,72.54
2022-09-06T20:55:29.424Z,73.17
2022-09-06T21:00:32.630Z,73.18
2022-09-06T21:05:35.759Z,73.20
2022-09-06T21:10:38.820Z,73.35
2022-09-06T21:15:41.916Z,73.40
2022-09-06T21:20:57.354Z,75.45
2022-09-06T21:26:04.908Z,75.43
2022-09-06T21:31:09.882Z,75.68
2022-09-06T21:36:16.870Z,76.79
2022-09-06T21:41:21.292Z,77.45
2022-09-06T21:46:32.329Z,77.47
2022-09-06T21:51:37.404Z,77.42
2022-09-06T21:56:40.881Z,77.21
2022-09-06T22:01:45.388Z,77.44
2022-09-06T22:06:48.571Z,78.15
2022-09-06T22:11:51.740Z,78.58
2022-09-06T22:16:54.744Z,78.54
2022-09-06T22:21:57.764Z,78.68
2022-09-06T22:27:00.713Z,78.11
2022-09-06T22:32:03.752Z,77.37
2022-09-06T22:37:06.784Z,77.75
2022-09-06T22:42:09.726Z,78.95
2022-09-06T22:47:12.782Z,79.50
2022-09-06T22:52:15.750Z,80.14
2022-09-06T22:57:18.813Z,80.65
2022-09-06T23:02:21.762Z,81.03
2022-09-06T23:07:24.737Z,80.61
2022-09-06T23:12:28.010Z,81.43
2022-09-06T23:17:30.932Z,81.61
2022-09-06T23:22:33.851Z,81.31
2022-09-06T23:27:36.848Z,80.08
2022-09-06T23:32:39.884Z,80.54
2022-09-06T23:37:42.783Z,81.68
2022-09-06T23:42:46.471Z,82.26
2022-09-06T23:47:49.382Z,81.50
2022-09-06T23:52:52.307Z,81.00
2022-09-06T23:57:55.220Z,81.11
